Weather at Niagara Falls International Airport

Public forecast

Using degrees Fahrenheit for public forecast. Weather courtesy of forecast.io.

Current aviation weather report (METAR) for Niagara Falls International Airport

2024/05/28 01:53 (retrieved 10 minutes ago)

KIAG 280153Z 24017G28KT 10SM SCT020 OVC048 18/13 A2962 RMK AO2 PK WND 24029/0107 SLP029 T01830133

Closest aviation forecast (TAF) to Niagara Falls International Airport

Forecast is more than 6 hours old.

Closest forecast is Niagara District Airport, 11.1 nm (20.6 km) WNW.

2024/05/27 20:00 (retrieved 6 hours ago)

TAF CYSN 271940Z 2720/2801 23020G30KT P6SM BKN030 OVC120 TEMPO 2720/2801 BKN020 OVC120 BECMG 2722/2724 23015KT RMK NXT FCST BY 281300Z